sensor_id;sensor_type;location;lat;lon;timestamp;P1;durP1;ratioP1;P2;durP2;ratioP2
25938;SDS011;13739;51.172;4.466;2022-07-22T00:01:50;8.98;;;2.15;;
25938;SDS011;13739;51.172;4.466;2022-07-22T00:04:15;6.93;;;2.13;;
25938;SDS011;13739;51.172;4.466;2022-07-22T00:06:41;15.55;;;2.50;;
25938;SDS011;13739;51.172;4.466;2022-07-22T00:09:07;5.95;;;1.90;;
25938;SDS011;13739;51.172;4.466;2022-07-22T00:11:33;8.75;;;2.10;;
25938;SDS011;13739;51.172;4.466;2022-07-22T00:13:59;6.18;;;2.40;;
25938;SDS011;13739;51.172;4.466;2022-07-22T00:16:24;7.45;;;2.08;;
25938;SDS011;13739;51.172;4.466;2022-07-22T00:18:50;11.68;;;2.55;;
25938;SDS011;13739;51.172;4.466;2022-07-22T00:21:16;7.30;;;2.08;;
25938;SDS011;13739;51.172;4.466;2022-07-22T00:23:42;6.15;;;1.80;;
25938;SDS011;13739;51.172;4.466;2022-07-22T00:26:07;9.70;;;1.98;;
25938;SDS011;13739;51.172;4.466;2022-07-22T00:28:33;7.55;;;2.00;;
25938;SDS011;13739;51.172;4.466;2022-07-22T00:30:59;6.40;;;2.25;;
25938;SDS011;13739;51.172;4.466;2022-07-22T00:33:24;7.22;;;1.98;;
25938;SDS011;13739;51.172;4.466;2022-07-22T00:35:50;5.97;;;2.00;;
25938;SDS011;13739;51.172;4.466;2022-07-22T00:38:15;6.18;;;2.22;;
25938;SDS011;13739;51.172;4.466;2022-07-22T00:40:41;6.90;;;1.90;;
25938;SDS011;13739;51.172;4.466;2022-07-22T00:43:07;6.05;;;2.08;;
25938;SDS011;13739;51.172;4.466;2022-07-22T00:45:32;6.57;;;1.92;;
25938;SDS011;13739;51.172;4.466;2022-07-22T00:47:58;9.77;;;2.30;;
25938;SDS011;13739;51.172;4.466;2022-07-22T00:50:24;7.03;;;2.00;;
25938;SDS011;13739;51.172;4.466;2022-07-22T00:52:50;5.80;;;2.53;;
25938;SDS011;13739;51.172;4.466;2022-07-22T00:55:15;6.57;;;1.67;;
25938;SDS011;13739;51.172;4.466;2022-07-22T00:57:41;5.05;;;1.75;;
25938;SDS011;13739;51.172;4.466;2022-07-22T01:00:09;9.05;;;2.00;;
25938;SDS011;13739;51.172;4.466;2022-07-22T01:02:37;9.10;;;2.33;;
25938;SDS011;13739;51.172;4.466;2022-07-22T01:05:04;10.55;;;2.20;;
25938;SDS011;13739;51.172;4.466;2022-07-22T01:07:30;6.15;;;2.50;;
25938;SDS011;13739;51.172;4.466;2022-07-22T01:09:56;4.32;;;1.73;;
25938;SDS011;13739;51.172;4.466;2022-07-22T01:12:21;4.93;;;1.80;;
25938;SDS011;13739;51.172;4.466;2022-07-22T01:14:47;8.32;;;2.65;;
25938;SDS011;13739;51.172;4.466;2022-07-22T01:17:13;12.70;;;2.35;;
25938;SDS011;13739;51.172;4.466;2022-07-22T01:19:38;4.93;;;1.73;;
25938;SDS011;13739;51.172;4.466;2022-07-22T01:22:04;5.38;;;2.03;;
25938;SDS011;13739;51.172;4.466;2022-07-22T01:24:31;6.85;;;2.33;;
25938;SDS011;13739;51.172;4.466;2022-07-22T01:26:57;7.15;;;2.08;;
25938;SDS011;13739;51.172;4.466;2022-07-22T01:29:23;10.35;;;2.20;;
25938;SDS011;13739;51.172;4.466;2022-07-22T01:31:49;8.32;;;2.50;;
25938;SDS011;13739;51.172;4.466;2022-07-22T01:34:14;9.00;;;2.20;;
25938;SDS011;13739;51.172;4.466;2022-07-22T01:36:40;3.38;;;1.73;;
25938;SDS011;13739;51.172;4.466;2022-07-22T01:39:06;7.88;;;1.90;;
25938;SDS011;13739;51.172;4.466;2022-07-22T01:41:32;8.93;;;2.00;;
25938;SDS011;13739;51.172;4.466;2022-07-22T01:43:57;10.50;;;2.83;;
25938;SDS011;13739;51.172;4.466;2022-07-22T01:46:23;8.65;;;2.20;;
25938;SDS011;13739;51.172;4.466;2022-07-22T01:48:52;7.07;;;2.20;;
25938;SDS011;13739;51.172;4.466;2022-07-22T01:51:18;4.95;;;2.13;;
25938;SDS011;13739;51.172;4.466;2022-07-22T01:53:45;7.03;;;2.13;;
25938;SDS011;13739;51.172;4.466;2022-07-22T01:56:11;5.65;;;2.30;;
25938;SDS011;13739;51.172;4.466;2022-07-22T01:58:36;4.35;;;1.92;;
25938;SDS011;13739;51.172;4.466;2022-07-22T02:01:02;8.07;;;2.10;;
25938;SDS011;13739;51.172;4.466;2022-07-22T02:03:28;6.80;;;2.25;;
25938;SDS011;13739;51.172;4.466;2022-07-22T02:05:54;6.88;;;1.80;;
25938;SDS011;13739;51.172;4.466;2022-07-22T02:08:20;7.28;;;2.58;;
25938;SDS011;13739;51.172;4.466;2022-07-22T02:10:46;6.57;;;2.15;;
25938;SDS011;13739;51.172;4.466;2022-07-22T02:13:12;4.38;;;2.13;;
25938;SDS011;13739;51.172;4.466;2022-07-22T02:15:38;9.20;;;2.67;;
25938;SDS011;13739;51.172;4.466;2022-07-22T02:18:11;8.68;;;2.30;;
25938;SDS011;13739;51.172;4.466;2022-07-22T02:20:38;4.72;;;2.42;;
25938;SDS011;13739;51.172;4.466;2022-07-22T02:23:04;8.45;;;2.30;;
25938;SDS011;13739;51.172;4.466;2022-07-22T02:25:30;7.03;;;2.33;;
25938;SDS011;13739;51.172;4.466;2022-07-22T02:27:58;9.18;;;2.20;;
25938;SDS011;13739;51.172;4.466;2022-07-22T02:30:24;4.47;;;2.40;;
25938;SDS011;13739;51.172;4.466;2022-07-22T02:32:50;4.50;;;2.45;;
25938;SDS011;13739;51.172;4.466;2022-07-22T02:35:16;10.52;;;2.30;;
25938;SDS011;13739;51.172;4.466;2022-07-22T02:37:41;7.43;;;3.33;;
25938;SDS011;13739;51.172;4.466;2022-07-22T02:40:07;6.90;;;2.63;;
25938;SDS011;13739;51.172;4.466;2022-07-22T02:42:33;5.80;;;2.28;;
25938;SDS011;13739;51.172;4.466;2022-07-22T02:44:59;5.45;;;2.60;;
25938;SDS011;13739;51.172;4.466;2022-07-22T02:47:25;5.75;;;2.90;;
25938;SDS011;13739;51.172;4.466;2022-07-22T02:49:51;4.53;;;2.33;;
25938;SDS011;13739;51.172;4.466;2022-07-22T02:52:16;10.13;;;2.92;;
25938;SDS011;13739;51.172;4.466;2022-07-22T02:54:42;9.02;;;2.85;;
25938;SDS011;13739;51.172;4.466;2022-07-22T02:57:08;8.10;;;2.83;;
25938;SDS011;13739;51.172;4.466;2022-07-22T02:59:34;6.20;;;2.60;;
25938;SDS011;13739;51.172;4.466;2022-07-22T03:02:00;7.35;;;3.00;;
25938;SDS011;13739;51.172;4.466;2022-07-22T03:04:26;9.85;;;2.78;;
25938;SDS011;13739;51.172;4.466;2022-07-22T03:06:51;10.65;;;2.80;;
25938;SDS011;13739;51.172;4.466;2022-07-22T03:09:17;8.43;;;2.90;;
25938;SDS011;13739;51.172;4.466;2022-07-22T03:11:44;9.45;;;2.92;;
25938;SDS011;13739;51.172;4.466;2022-07-22T03:14:12;7.43;;;3.05;;
25938;SDS011;13739;51.172;4.466;2022-07-22T03:16:38;6.72;;;2.70;;
25938;SDS011;13739;51.172;4.466;2022-07-22T03:19:03;6.90;;;2.80;;
25938;SDS011;13739;51.172;4.466;2022-07-22T03:21:29;6.50;;;2.65;;
25938;SDS011;13739;51.172;4.466;2022-07-22T03:23:55;7.18;;;2.30;;
25938;SDS011;13739;51.172;4.466;2022-07-22T03:26:21;7.40;;;2.63;;
25938;SDS011;13739;51.172;4.466;2022-07-22T03:28:47;6.10;;;2.50;;
25938;SDS011;13739;51.172;4.466;2022-07-22T03:31:12;6.90;;;2.70;;
25938;SDS011;13739;51.172;4.466;2022-07-22T03:33:38;9.13;;;3.30;;
25938;SDS011;13739;51.172;4.466;2022-07-22T03:36:04;8.27;;;3.90;;
25938;SDS011;13739;51.172;4.466;2022-07-22T03:38:33;7.07;;;2.78;;
25938;SDS011;13739;51.172;4.466;2022-07-22T03:41:00;9.25;;;3.25;;
25938;SDS011;13739;51.172;4.466;2022-07-22T03:43:26;8.48;;;2.90;;
25938;SDS011;13739;51.172;4.466;2022-07-22T03:45:52;6.40;;;2.50;;
25938;SDS011;13739;51.172;4.466;2022-07-22T03:48:17;6.80;;;2.63;;
25938;SDS011;13739;51.172;4.466;2022-07-22T03:50:43;6.03;;;2.33;;
25938;SDS011;13739;51.172;4.466;2022-07-22T03:53:09;7.18;;;3.22;;
25938;SDS011;13739;51.172;4.466;2022-07-22T03:55:35;7.80;;;2.72;;
25938;SDS011;13739;51.172;4.466;2022-07-22T03:58:00;4.28;;;2.70;;
25938;SDS011;13739;51.172;4.466;2022-07-22T04:00:26;9.85;;;2.45;;
25938;SDS011;13739;51.172;4.466;2022-07-22T04:02:51;7.10;;;2.88;;
25938;SDS011;13739;51.172;4.466;2022-07-22T04:05:17;9.73;;;3.30;;
25938;SDS011;13739;51.172;4.466;2022-07-22T04:07:43;6.22;;;2.65;;
25938;SDS011;13739;51.172;4.466;2022-07-22T04:10:10;10.50;;;2.67;;
25938;SDS011;13739;51.172;4.466;2022-07-22T04:12:36;7.43;;;2.83;;
25938;SDS011;13739;51.172;4.466;2022-07-22T04:15:03;8.25;;;2.80;;
25938;SDS011;13739;51.172;4.466;2022-07-22T04:17:29;6.90;;;2.83;;
25938;SDS011;13739;51.172;4.466;2022-07-22T04:19:55;6.50;;;3.17;;
25938;SDS011;13739;51.172;4.466;2022-07-22T04:22:22;8.70;;;2.92;;
25938;SDS011;13739;51.172;4.466;2022-07-22T04:24:47;5.40;;;2.55;;
25938;SDS011;13739;51.172;4.466;2022-07-22T04:27:13;6.57;;;3.03;;
25938;SDS011;13739;51.172;4.466;2022-07-22T04:29:39;8.20;;;3.17;;
25938;SDS011;13739;51.172;4.466;2022-07-22T04:32:05;8.55;;;3.35;;
25938;SDS011;13739;51.172;4.466;2022-07-22T04:34:30;9.93;;;3.90;;
25938;SDS011;13739;51.172;4.466;2022-07-22T04:36:56;5.97;;;3.40;;
25938;SDS011;13739;51.172;4.466;2022-07-22T04:39:23;4.15;;;2.70;;
25938;SDS011;13739;51.172;4.466;2022-07-22T04:41:48;6.22;;;3.00;;
25938;SDS011;13739;51.172;4.466;2022-07-22T04:44:14;10.50;;;3.45;;
25938;SDS011;13739;51.172;4.466;2022-07-22T04:46:39;6.70;;;3.25;;
25938;SDS011;13739;51.172;4.466;2022-07-22T04:49:05;8.80;;;2.72;;
25938;SDS011;13739;51.172;4.466;2022-07-22T04:51:31;6.50;;;2.97;;
25938;SDS011;13739;51.172;4.466;2022-07-22T04:53:56;7.13;;;2.63;;
25938;SDS011;13739;51.172;4.466;2022-07-22T04:56:22;7.00;;;2.97;;
25938;SDS011;13739;51.172;4.466;2022-07-22T04:58:47;7.07;;;2.92;;
25938;SDS011;13739;51.172;4.466;2022-07-22T05:01:13;11.65;;;3.40;;
25938;SDS011;13739;51.172;4.466;2022-07-22T05:03:39;9.52;;;3.00;;
25938;SDS011;13739;51.172;4.466;2022-07-22T05:06:07;6.60;;;3.10;;
25938;SDS011;13739;51.172;4.466;2022-07-22T05:08:33;8.32;;;2.92;;
25938;SDS011;13739;51.172;4.466;2022-07-22T05:10:59;9.15;;;2.95;;
25938;SDS011;13739;51.172;4.466;2022-07-22T05:13:28;8.15;;;2.83;;
25938;SDS011;13739;51.172;4.466;2022-07-22T05:15:54;8.32;;;3.30;;
25938;SDS011;13739;51.172;4.466;2022-07-22T05:18:23;10.32;;;3.08;;
25938;SDS011;13739;51.172;4.466;2022-07-22T05:20:48;7.43;;;2.95;;
25938;SDS011;13739;51.172;4.466;2022-07-22T05:23:14;7.13;;;2.75;;
25938;SDS011;13739;51.172;4.466;2022-07-22T05:25:40;10.60;;;3.53;;
25938;SDS011;13739;51.172;4.466;2022-07-22T05:28:05;13.40;;;3.72;;
25938;SDS011;13739;51.172;4.466;2022-07-22T05:30:31;7.38;;;2.72;;
25938;SDS011;13739;51.172;4.466;2022-07-22T05:32:56;5.55;;;3.20;;
25938;SDS011;13739;51.172;4.466;2022-07-22T05:35:22;9.18;;;3.10;;
25938;SDS011;13739;51.172;4.466;2022-07-22T05:37:48;10.15;;;2.90;;
25938;SDS011;13739;51.172;4.466;2022-07-22T05:40:13;8.80;;;3.08;;
25938;SDS011;13739;51.172;4.466;2022-07-22T05:42:39;6.25;;;2.97;;
25938;SDS011;13739;51.172;4.466;2022-07-22T05:45:05;7.18;;;3.55;;
25938;SDS011;13739;51.172;4.466;2022-07-22T05:47:31;6.38;;;3.40;;
25938;SDS011;13739;51.172;4.466;2022-07-22T05:49:56;9.20;;;3.88;;
25938;SDS011;13739;51.172;4.466;2022-07-22T05:52:22;8.00;;;2.80;;
25938;SDS011;13739;51.172;4.466;2022-07-22T05:54:48;6.22;;;2.78;;
25938;SDS011;13739;51.172;4.466;2022-07-22T05:57:13;9.07;;;3.40;;
25938;SDS011;13739;51.172;4.466;2022-07-22T05:59:39;7.63;;;2.80;;
25938;SDS011;13739;51.172;4.466;2022-07-22T06:02:05;9.48;;;2.90;;
25938;SDS011;13739;51.172;4.466;2022-07-22T06:04:31;6.82;;;2.83;;
25938;SDS011;13739;51.172;4.466;2022-07-22T06:06:57;6.05;;;2.70;;
25938;SDS011;13739;51.172;4.466;2022-07-22T06:09:23;6.07;;;2.22;;
25938;SDS011;13739;51.172;4.466;2022-07-22T06:11:51;8.10;;;2.70;;
25938;SDS011;13739;51.172;4.466;2022-07-22T06:14:17;5.05;;;2.40;;
25938;SDS011;13739;51.172;4.466;2022-07-22T06:16:42;8.18;;;2.30;;
25938;SDS011;13739;51.172;4.466;2022-07-22T06:19:08;7.63;;;2.60;;
25938;SDS011;13739;51.172;4.466;2022-07-22T06:21:36;8.52;;;2.47;;
25938;SDS011;13739;51.172;4.466;2022-07-22T06:24:03;5.18;;;2.25;;
25938;SDS011;13739;51.172;4.466;2022-07-22T06:26:29;7.80;;;2.25;;
25938;SDS011;13739;51.172;4.466;2022-07-22T06:28:55;8.73;;;2.65;;
25938;SDS011;13739;51.172;4.466;2022-07-22T06:31:20;5.43;;;2.30;;
25938;SDS011;13739;51.172;4.466;2022-07-22T06:33:46;6.45;;;2.13;;
25938;SDS011;13739;51.172;4.466;2022-07-22T06:36:12;4.35;;;2.25;;
25938;SDS011;13739;51.172;4.466;2022-07-22T06:38:39;5.60;;;2.05;;
25938;SDS011;13739;51.172;4.466;2022-07-22T06:41:04;8.45;;;2.35;;
25938;SDS011;13739;51.172;4.466;2022-07-22T06:43:30;7.32;;;2.38;;
25938;SDS011;13739;51.172;4.466;2022-07-22T06:45:56;7.85;;;2.10;;
25938;SDS011;13739;51.172;4.466;2022-07-22T06:48:21;8.05;;;2.00;;
25938;SDS011;13739;51.172;4.466;2022-07-22T06:50:47;6.90;;;2.10;;
25938;SDS011;13739;51.172;4.466;2022-07-22T06:53:13;8.52;;;1.98;;
25938;SDS011;13739;51.172;4.466;2022-07-22T06:55:38;5.13;;;1.83;;
25938;SDS011;13739;51.172;4.466;2022-07-22T06:58:04;5.60;;;1.70;;
25938;SDS011;13739;51.172;4.466;2022-07-22T07:00:33;6.95;;;1.63;;
25938;SDS011;13739;51.172;4.466;2022-07-22T07:02:59;5.18;;;1.50;;
25938;SDS011;13739;51.172;4.466;2022-07-22T07:05:25;5.57;;;1.67;;
25938;SDS011;13739;51.172;4.466;2022-07-22T07:07:53;5.20;;;1.73;;
25938;SDS011;13739;51.172;4.466;2022-07-22T07:10:19;6.88;;;1.63;;
25938;SDS011;13739;51.172;4.466;2022-07-22T07:12:45;6.53;;;2.08;;
25938;SDS011;13739;51.172;4.466;2022-07-22T07:15:11;7.22;;;2.22;;
25938;SDS011;13739;51.172;4.466;2022-07-22T07:17:36;5.85;;;1.60;;
25938;SDS011;13739;51.172;4.466;2022-07-22T07:20:03;5.65;;;1.40;;
25938;SDS011;13739;51.172;4.466;2022-07-22T07:22:29;3.15;;;1.20;;
25938;SDS011;13739;51.172;4.466;2022-07-22T07:24:55;4.43;;;1.23;;
25938;SDS011;13739;51.172;4.466;2022-07-22T07:27:21;4.40;;;1.35;;
25938;SDS011;13739;51.172;4.466;2022-07-22T07:29:46;2.45;;;0.98;;
25938;SDS011;13739;51.172;4.466;2022-07-22T07:32:12;4.32;;;1.30;;
25938;SDS011;13739;51.172;4.466;2022-07-22T07:34:37;9.27;;;1.58;;
25938;SDS011;13739;51.172;4.466;2022-07-22T07:37:03;5.82;;;1.40;;
25938;SDS011;13739;51.172;4.466;2022-07-22T07:39:29;1.63;;;1.15;;
25938;SDS011;13739;51.172;4.466;2022-07-22T07:41:55;2.63;;;1.17;;
25938;SDS011;13739;51.172;4.466;2022-07-22T07:44:20;5.85;;;1.40;;
25938;SDS011;13739;51.172;4.466;2022-07-22T07:46:46;2.20;;;1.10;;
25938;SDS011;13739;51.172;4.466;2022-07-22T07:49:12;1.45;;;1.00;;
25938;SDS011;13739;51.172;4.466;2022-07-22T07:51:38;2.13;;;1.02;;
25938;SDS011;13739;51.172;4.466;2022-07-22T07:54:03;3.03;;;1.20;;
25938;SDS011;13739;51.172;4.466;2022-07-22T07:56:29;4.93;;;1.40;;
25938;SDS011;13739;51.172;4.466;2022-07-22T07:58:54;4.60;;;1.40;;
25938;SDS011;13739;51.172;4.466;2022-07-22T08:01:20;3.15;;;1.60;;
25938;SDS011;13739;51.172;4.466;2022-07-22T08:03:46;3.33;;;1.20;;
25938;SDS011;13739;51.172;4.466;2022-07-22T08:06:11;3.22;;;1.38;;
25938;SDS011;13739;51.172;4.466;2022-07-22T08:08:37;4.03;;;1.38;;
25938;SDS011;13739;51.172;4.466;2022-07-22T08:11:03;4.93;;;1.83;;
25938;SDS011;13739;51.172;4.466;2022-07-22T08:13:28;3.30;;;1.65;;
25938;SDS011;13739;51.172;4.466;2022-07-22T08:15:54;7.47;;;1.95;;
25938;SDS011;13739;51.172;4.466;2022-07-22T08:18:20;5.85;;;1.80;;
25938;SDS011;13739;51.172;4.466;2022-07-22T08:20:46;3.88;;;1.52;;
25938;SDS011;13739;51.172;4.466;2022-07-22T08:23:12;5.10;;;2.03;;
25938;SDS011;13739;51.172;4.466;2022-07-22T08:25:37;4.53;;;1.70;;
25938;SDS011;13739;51.172;4.466;2022-07-22T08:28:03;6.47;;;1.95;;
25938;SDS011;13739;51.172;4.466;2022-07-22T08:30:29;2.38;;;1.67;;
25938;SDS011;13739;51.172;4.466;2022-07-22T08:32:55;5.38;;;2.10;;
25938;SDS011;13739;51.172;4.466;2022-07-22T08:35:21;4.70;;;1.52;;
25938;SDS011;13739;51.172;4.466;2022-07-22T08:37:47;2.28;;;1.52;;
25938;SDS011;13739;51.172;4.466;2022-07-22T08:40:14;6.68;;;2.28;;
25938;SDS011;13739;51.172;4.466;2022-07-22T08:42:42;5.20;;;1.73;;
25938;SDS011;13739;51.172;4.466;2022-07-22T08:45:09;4.65;;;1.90;;
25938;SDS011;13739;51.172;4.466;2022-07-22T08:47:35;5.53;;;2.10;;
25938;SDS011;13739;51.172;4.466;2022-07-22T08:50:01;5.82;;;1.70;;
25938;SDS011;13739;51.172;4.466;2022-07-22T08:52:27;3.38;;;1.67;;
25938;SDS011;13739;51.172;4.466;2022-07-22T08:54:53;8.63;;;1.90;;
25938;SDS011;13739;51.172;4.466;2022-07-22T08:57:18;5.10;;;2.20;;
25938;SDS011;13739;51.172;4.466;2022-07-22T08:59:57;3.47;;;2.00;;
25938;SDS011;13739;51.172;4.466;2022-07-22T09:02:24;6.82;;;2.15;;
25938;SDS011;13739;51.172;4.466;2022-07-22T09:05:01;7.57;;;2.80;;
25938;SDS011;13739;51.172;4.466;2022-07-22T09:07:32;3.92;;;1.95;;
25938;SDS011;13739;51.172;4.466;2022-07-22T09:10:04;6.18;;;2.50;;
25938;SDS011;13739;51.172;4.466;2022-07-22T09:12:50;7.30;;;2.40;;
25938;SDS011;13739;51.172;4.466;2022-07-22T09:15:34;5.55;;;2.35;;
25938;SDS011;13739;51.172;4.466;2022-07-22T09:18:02;4.82;;;2.45;;
25938;SDS011;13739;51.172;4.466;2022-07-22T09:20:28;4.63;;;2.67;;
25938;SDS011;13739;51.172;4.466;2022-07-22T09:22:55;4.63;;;2.47;;
25938;SDS011;13739;51.172;4.466;2022-07-22T09:30:33;3.92;;;2.38;;
25938;SDS011;13739;51.172;4.466;2022-07-22T09:33:00;6.80;;;2.47;;
25938;SDS011;13739;51.172;4.466;2022-07-22T09:35:27;3.00;;;2.10;;
25938;SDS011;13739;51.172;4.466;2022-07-22T09:37:56;4.13;;;2.10;;
25938;SDS011;13739;51.172;4.466;2022-07-22T09:40:24;5.28;;;2.38;;
25938;SDS011;13739;51.172;4.466;2022-07-22T09:42:54;5.18;;;2.58;;
25938;SDS011;13739;51.172;4.466;2022-07-22T09:45:22;6.20;;;2.60;;
25938;SDS011;13739;51.172;4.466;2022-07-22T09:47:49;4.60;;;2.22;;
25938;SDS011;13739;51.172;4.466;2022-07-22T09:52:45;5.72;;;2.67;;
25938;SDS011;13739;51.172;4.466;2022-07-22T09:55:13;4.70;;;2.40;;
25938;SDS011;13739;51.172;4.466;2022-07-22T09:57:40;5.90;;;2.67;;
25938;SDS011;13739;51.172;4.466;2022-07-22T10:00:06;7.63;;;3.50;;
25938;SDS011;13739;51.172;4.466;2022-07-22T10:05:30;6.05;;;2.90;;
25938;SDS011;13739;51.172;4.466;2022-07-22T10:07:57;8.50;;;3.00;;
25938;SDS011;13739;51.172;4.466;2022-07-22T10:10:27;5.10;;;2.83;;
25938;SDS011;13739;51.172;4.466;2022-07-22T10:12:54;5.38;;;2.88;;
25938;SDS011;13739;51.172;4.466;2022-07-22T10:15:22;4.30;;;2.63;;
25938;SDS011;13739;51.172;4.466;2022-07-22T10:17:54;4.90;;;2.92;;
25938;SDS011;13739;51.172;4.466;2022-07-22T10:20:25;4.70;;;3.13;;
25938;SDS011;13739;51.172;4.466;2022-07-22T10:22:57;8.18;;;3.47;;
25938;SDS011;13739;51.172;4.466;2022-07-22T10:25:25;4.90;;;3.00;;
25938;SDS011;13739;51.172;4.466;2022-07-22T10:35:35;6.82;;;3.10;;
25938;SDS011;13739;51.172;4.466;2022-07-22T10:38:04;5.13;;;3.22;;
25938;SDS011;13739;51.172;4.466;2022-07-22T10:40:32;7.15;;;3.88;;
25938;SDS011;13739;51.172;4.466;2022-07-22T10:43:11;7.80;;;3.83;;
25938;SDS011;13739;51.172;4.466;2022-07-22T10:45:48;8.90;;;3.78;;
25938;SDS011;13739;51.172;4.466;2022-07-22T10:50:43;4.82;;;3.05;;
25938;SDS011;13739;51.172;4.466;2022-07-22T10:53:18;6.30;;;3.55;;
25938;SDS011;13739;51.172;4.466;2022-07-22T10:58:43;7.18;;;3.10;;
25938;SDS011;13739;51.172;4.466;2022-07-22T11:01:12;6.30;;;2.95;;
25938;SDS011;13739;51.172;4.466;2022-07-22T11:03:41;6.97;;;3.78;;
25938;SDS011;13739;51.172;4.466;2022-07-22T11:06:16;9.05;;;3.90;;
25938;SDS011;13739;51.172;4.466;2022-07-22T11:08:47;7.40;;;3.60;;
25938;SDS011;13739;51.172;4.466;2022-07-22T11:11:15;6.05;;;3.67;;
25938;SDS011;13739;51.172;4.466;2022-07-22T11:13:42;4.70;;;2.72;;
25938;SDS011;13739;51.172;4.466;2022-07-22T11:16:25;5.03;;;2.78;;
25938;SDS011;13739;51.172;4.466;2022-07-22T11:21:19;6.28;;;3.05;;
25938;SDS011;13739;51.172;4.466;2022-07-22T11:23:47;8.50;;;3.15;;
25938;SDS011;13739;51.172;4.466;2022-07-22T11:26:15;5.97;;;2.63;;
25938;SDS011;13739;51.172;4.466;2022-07-22T11:28:43;6.22;;;2.88;;
25938;SDS011;13739;51.172;4.466;2022-07-22T11:31:12;7.32;;;2.95;;
25938;SDS011;13739;51.172;4.466;2022-07-22T11:33:40;6.40;;;3.60;;
25938;SDS011;13739;51.172;4.466;2022-07-22T11:36:07;5.07;;;2.65;;
25938;SDS011;13739;51.172;4.466;2022-07-22T11:38:45;7.45;;;3.22;;
25938;SDS011;13739;51.172;4.466;2022-07-22T11:41:12;6.90;;;2.90;;
25938;SDS011;13739;51.172;4.466;2022-07-22T11:43:44;4.65;;;3.13;;
25938;SDS011;13739;51.172;4.466;2022-07-22T11:46:11;7.90;;;3.92;;
25938;SDS011;13739;51.172;4.466;2022-07-22T11:48:37;6.32;;;3.30;;
25938;SDS011;13739;51.172;4.466;2022-07-22T11:51:04;5.30;;;3.50;;
25938;SDS011;13739;51.172;4.466;2022-07-22T11:53:31;7.38;;;3.65;;
25938;SDS011;13739;51.172;4.466;2022-07-22T11:55:58;7.25;;;3.45;;
25938;SDS011;13739;51.172;4.466;2022-07-22T11:58:43;6.30;;;3.53;;
25938;SDS011;13739;51.172;4.466;2022-07-22T12:01:12;5.35;;;3.30;;
25938;SDS011;13739;51.172;4.466;2022-07-22T12:03:39;6.13;;;3.10;;
25938;SDS011;13739;51.172;4.466;2022-07-22T12:06:11;7.78;;;4.05;;
25938;SDS011;13739;51.172;4.466;2022-07-22T12:08:43;6.72;;;3.25;;
25938;SDS011;13739;51.172;4.466;2022-07-22T12:11:11;6.05;;;3.22;;
25938;SDS011;13739;51.172;4.466;2022-07-22T12:13:43;5.22;;;3.22;;
25938;SDS011;13739;51.172;4.466;2022-07-22T12:16:17;6.18;;;3.80;;
25938;SDS011;13739;51.172;4.466;2022-07-22T12:18:55;6.20;;;3.78;;
25938;SDS011;13739;51.172;4.466;2022-07-22T12:21:23;6.13;;;3.58;;
25938;SDS011;13739;51.172;4.466;2022-07-22T12:23:54;6.63;;;3.60;;
25938;SDS011;13739;51.172;4.466;2022-07-22T12:26:42;8.50;;;4.10;;
25938;SDS011;13739;51.172;4.466;2022-07-22T12:29:17;5.88;;;2.90;;
25938;SDS011;13739;51.172;4.466;2022-07-22T12:31:47;6.20;;;3.22;;
25938;SDS011;13739;51.172;4.466;2022-07-22T12:34:13;5.78;;;3.30;;
25938;SDS011;13739;51.172;4.466;2022-07-22T12:36:42;8.15;;;4.18;;
25938;SDS011;13739;51.172;4.466;2022-07-22T12:39:17;4.40;;;3.15;;
25938;SDS011;13739;51.172;4.466;2022-07-22T12:41:51;6.00;;;3.63;;
25938;SDS011;13739;51.172;4.466;2022-07-22T12:44:20;6.00;;;3.55;;
25938;SDS011;13739;51.172;4.466;2022-07-22T12:46:48;7.65;;;3.78;;
25938;SDS011;13739;51.172;4.466;2022-07-22T12:49:19;6.95;;;3.38;;
25938;SDS011;13739;51.172;4.466;2022-07-22T12:54:32;6.20;;;3.65;;
25938;SDS011;13739;51.172;4.466;2022-07-22T12:56:59;9.40;;;3.63;;
25938;SDS011;13739;51.172;4.466;2022-07-22T12:59:25;6.68;;;3.47;;
25938;SDS011;13739;51.172;4.466;2022-07-22T13:01:51;7.85;;;3.78;;
25938;SDS011;13739;51.172;4.466;2022-07-22T13:04:17;5.38;;;3.30;;
25938;SDS011;13739;51.172;4.466;2022-07-22T13:06:43;6.55;;;3.88;;
25938;SDS011;13739;51.172;4.466;2022-07-22T13:09:08;5.65;;;3.13;;
25938;SDS011;13739;51.172;4.466;2022-07-22T13:11:34;6.90;;;3.50;;
25938;SDS011;13739;51.172;4.466;2022-07-22T13:14:08;9.35;;;4.07;;
25938;SDS011;13739;51.172;4.466;2022-07-22T13:16:34;6.80;;;3.70;;
25938;SDS011;13739;51.172;4.466;2022-07-22T13:19:00;9.10;;;4.03;;
25938;SDS011;13739;51.172;4.466;2022-07-22T13:21:26;6.68;;;3.67;;
25938;SDS011;13739;51.172;4.466;2022-07-22T13:23:52;5.50;;;3.13;;
25938;SDS011;13739;51.172;4.466;2022-07-22T13:26:18;7.30;;;4.05;;
25938;SDS011;13739;51.172;4.466;2022-07-22T13:28:43;8.20;;;4.00;;
25938;SDS011;13739;51.172;4.466;2022-07-22T13:31:09;5.90;;;3.38;;
25938;SDS011;13739;51.172;4.466;2022-07-22T13:33:35;8.00;;;3.92;;
25938;SDS011;13739;51.172;4.466;2022-07-22T13:36:01;7.38;;;4.13;;
25938;SDS011;13739;51.172;4.466;2022-07-22T13:38:26;7.70;;;3.90;;
25938;SDS011;13739;51.172;4.466;2022-07-22T13:40:52;5.82;;;3.30;;
25938;SDS011;13739;51.172;4.466;2022-07-22T13:43:18;9.85;;;3.85;;
25938;SDS011;13739;51.172;4.466;2022-07-22T13:45:45;4.65;;;3.15;;
25938;SDS011;13739;51.172;4.466;2022-07-22T13:48:11;7.00;;;3.67;;
25938;SDS011;13739;51.172;4.466;2022-07-22T13:50:36;8.48;;;3.05;;
25938;SDS011;13739;51.172;4.466;2022-07-22T13:53:02;8.10;;;3.53;;
25938;SDS011;13739;51.172;4.466;2022-07-22T13:55:27;6.82;;;4.15;;
25938;SDS011;13739;51.172;4.466;2022-07-22T13:57:55;6.32;;;3.47;;
25938;SDS011;13739;51.172;4.466;2022-07-22T14:00:22;6.63;;;3.75;;
25938;SDS011;13739;51.172;4.466;2022-07-22T14:02:49;8.32;;;4.03;;
25938;SDS011;13739;51.172;4.466;2022-07-22T14:05:14;12.65;;;4.20;;
25938;SDS011;13739;51.172;4.466;2022-07-22T14:07:40;7.88;;;3.60;;
25938;SDS011;13739;51.172;4.466;2022-07-22T14:10:06;5.15;;;3.53;;
25938;SDS011;13739;51.172;4.466;2022-07-22T14:12:32;6.20;;;3.65;;
25938;SDS011;13739;51.172;4.466;2022-07-22T14:14:57;7.30;;;3.10;;
25938;SDS011;13739;51.172;4.466;2022-07-22T14:17:23;6.75;;;4.07;;
25938;SDS011;13739;51.172;4.466;2022-07-22T14:19:49;8.18;;;4.20;;
25938;SDS011;13739;51.172;4.466;2022-07-22T14:22:14;8.07;;;5.35;;
25938;SDS011;13739;51.172;4.466;2022-07-22T14:24:40;9.95;;;4.93;;
25938;SDS011;13739;51.172;4.466;2022-07-22T14:27:06;13.68;;;4.50;;
25938;SDS011;13739;51.172;4.466;2022-07-22T14:29:31;7.95;;;4.57;;
25938;SDS011;13739;51.172;4.466;2022-07-22T14:31:57;6.63;;;3.97;;
25938;SDS011;13739;51.172;4.466;2022-07-22T14:34:22;7.13;;;4.35;;
25938;SDS011;13739;51.172;4.466;2022-07-22T14:36:48;9.00;;;4.25;;
25938;SDS011;13739;51.172;4.466;2022-07-22T14:39:14;8.70;;;3.85;;
25938;SDS011;13739;51.172;4.466;2022-07-22T14:41:39;7.90;;;3.50;;
25938;SDS011;13739;51.172;4.466;2022-07-22T14:44:05;7.18;;;4.00;;
25938;SDS011;13739;51.172;4.466;2022-07-22T14:46:31;7.38;;;3.28;;
25938;SDS011;13739;51.172;4.466;2022-07-22T14:48:57;8.98;;;4.72;;
25938;SDS011;13739;51.172;4.466;2022-07-22T14:51:23;6.25;;;3.47;;
25938;SDS011;13739;51.172;4.466;2022-07-22T14:53:48;8.35;;;4.68;;
25938;SDS011;13739;51.172;4.466;2022-07-22T14:56:15;10.32;;;4.28;;
25938;SDS011;13739;51.172;4.466;2022-07-22T14:58:41;7.25;;;4.10;;
25938;SDS011;13739;51.172;4.466;2022-07-22T15:01:07;8.93;;;4.15;;
25938;SDS011;13739;51.172;4.466;2022-07-22T15:03:33;8.00;;;4.18;;
25938;SDS011;13739;51.172;4.466;2022-07-22T15:05:58;6.72;;;4.40;;
25938;SDS011;13739;51.172;4.466;2022-07-22T15:08:24;7.65;;;4.00;;
25938;SDS011;13739;51.172;4.466;2022-07-22T15:10:49;7.47;;;4.18;;
25938;SDS011;13739;51.172;4.466;2022-07-22T15:13:15;7.00;;;4.38;;
25938;SDS011;13739;51.172;4.466;2022-07-22T15:15:41;7.78;;;4.60;;